Time;durP1;ratioP1;P1;durP2;ratioP2;P2;SDS_P1;SDS_P2;PMS_P1;PMS_P2;Temp;Humidity;BMP_temperature;BMP_pressure;BME280_temperature;BME280_humidity;BME280_pressure;Samples;Min_cycle;Max_cycle;Signal;HPM_P1;HPM_P2
2021/08/06 00:00:48;;;;;;;2.70;1.73;;;19.70;76.60;;;;;;2042060;29;20039;-95
2021/08/06 00:01:49;;;;;;;3.42;2.00;;;19.70;76.60;;;;;;2041717;29;20044;-95
2021/08/06 00:02:49;;;;;;;3.00;1.92;;;19.60;76.60;;;;;;2050176;28;20059;-95
2021/08/06 00:03:50;;;;;;;3.33;1.67;;;19.70;76.60;;;;;;2041990;29;20043;-94
2021/08/06 00:04:51;;;;;;;2.70;1.58;;;19.60;76.60;;;;;;2043378;29;20042;-93
2021/08/06 00:05:54;;;;;;;2.03;1.60;;;19.60;76.70;;;;;;2052972;29;20575;-94
2021/08/06 00:06:55;;;;;;;2.42;1.63;;;19.60;76.70;;;;;;2035345;29;20044;-94
2021/08/06 00:07:55;;;;;;;2.53;1.70;;;19.60;76.80;;;;;;2024267;29;20048;-95
2021/08/06 00:08:57;;;;;;;2.72;1.50;;;19.60;76.80;;;;;;2030970;29;20032;-96
2021/08/06 00:09:57;;;;;;;2.22;1.70;;;19.60;76.80;;;;;;2038362;29;20044;-94
2021/08/06 00:10:58;;;;;;;2.53;1.60;;;19.60;76.90;;;;;;2050057;28;20032;-94
2021/08/06 00:11:59;;;;;;;3.47;1.77;;;19.60;76.80;;;;;;2056087;28;20496;-94
2021/08/06 00:13:00;;;;;;;2.05;1.65;;;19.60;76.90;;;;;;2054427;29;20059;-94
2021/08/06 00:14:01;;;;;;;2.80;1.65;;;19.60;76.90;;;;;;2046492;29;20039;-94
2021/08/06 00:15:02;;;;;;;2.60;1.70;;;19.60;77.00;;;;;;2062164;28;20063;-94
2021/08/06 00:16:04;;;;;;;2.83;1.90;;;19.60;77.00;;;;;;2054223;28;20043;-95
2021/08/06 00:17:04;;;;;;;2.33;1.70;;;19.60;77.00;;;;;;2046825;29;20130;-95
2021/08/06 00:18:05;;;;;;;3.13;1.77;;;19.60;77.00;;;;;;2046512;29;20032;-95
2021/08/06 00:19:06;;;;;;;2.63;1.90;;;19.60;77.00;;;;;;2054236;28;20054;-94
2021/08/06 00:20:07;;;;;;;2.50;1.85;;;19.60;77.00;;;;;;2047450;29;20035;-95
2021/08/06 00:21:08;;;;;;;2.35;1.70;;;19.60;77.10;;;;;;2034091;29;20078;-95
2021/08/06 00:22:09;;;;;;;2.58;1.70;;;19.50;77.10;;;;;;2034230;29;20044;-94
2021/08/06 00:23:10;;;;;;;2.08;1.58;;;19.60;77.20;;;;;;2049698;29;20059;-93
2021/08/06 00:24:10;;;;;;;2.45;1.50;;;19.60;77.20;;;;;;2049840;29;20032;-94
2021/08/06 00:25:11;;;;;;;2.47;1.70;;;19.60;77.30;;;;;;2050177;29;20040;-94
2021/08/06 00:26:12;;;;;;;2.35;1.70;;;19.60;77.30;;;;;;2050042;29;20032;-95
2021/08/06 00:27:13;;;;;;;2.50;1.67;;;19.50;77.30;;;;;;2049578;29;20434;-95
2021/08/06 00:28:14;;;;;;;2.78;1.65;;;19.50;77.30;;;;;;2042039;29;20043;-94
2021/08/06 00:29:14;;;;;;;2.47;1.80;;;19.50;77.40;;;;;;2050213;29;20104;-94
2021/08/06 00:30:15;;;;;;;2.17;1.60;;;19.60;77.40;;;;;;2057759;28;20127;-94
2021/08/06 00:31:16;;;;;;;4.00;1.85;;;19.50;77.40;;;;;;2055720;29;20031;-94
2021/08/06 00:32:16;;;;;;;2.42;1.77;;;19.50;77.50;;;;;;2057502;28;20023;-94
2021/08/06 00:33:17;;;;;;;2.72;1.70;;;19.50;77.50;;;;;;2047273;29;20047;-95
2021/08/06 00:34:18;;;;;;;2.35;1.80;;;19.50;77.60;;;;;;2053821;29;20039;-94
2021/08/06 00:35:19;;;;;;;2.03;1.48;;;19.50;77.70;;;;;;2054913;29;20073;-94
2021/08/06 00:36:20;;;;;;;2.63;1.70;;;19.40;77.70;;;;;;2058990;28;20038;-95
2021/08/06 00:37:21;;;;;;;2.25;1.42;;;19.40;77.80;;;;;;2049885;29;20035;-94
2021/08/06 00:38:22;;;;;;;3.03;1.83;;;19.40;77.80;;;;;;2042150;29;20549;-94
2021/08/06 00:39:22;;;;;;;2.10;1.67;;;19.40;77.90;;;;;;2049890;28;20067;-94
2021/08/06 00:40:25;;;;;;;2.30;1.63;;;19.40;78.00;;;;;;2059778;28;20033;-95
2021/08/06 00:41:25;;;;;;;2.17;1.60;;;19.40;78.00;;;;;;2057679;28;20041;-94
2021/08/06 00:42:26;;;;;;;3.17;1.90;;;19.40;78.00;;;;;;2058121;28;20042;-95
2021/08/06 00:43:27;;;;;;;3.00;1.70;;;19.40;78.10;;;;;;2058168;28;20034;-94
2021/08/06 00:44:28;;;;;;;2.30;1.70;;;19.40;78.10;;;;;;2049738;28;20614;-95
2021/08/06 00:45:28;;;;;;;2.75;1.80;;;19.40;78.10;;;;;;2049662;29;20089;-95
2021/08/06 00:46:29;;;;;;;2.63;1.65;;;19.40;78.20;;;;;;2057245;28;20035;-94
2021/08/06 00:47:30;;;;;;;2.10;1.50;;;19.40;78.20;;;;;;2049768;29;20050;-94
2021/08/06 00:48:31;;;;;;;2.70;1.77;;;19.40;78.20;;;;;;2041737;29;20040;-94
2021/08/06 00:49:32;;;;;;;2.85;1.58;;;19.40;78.30;;;;;;2049677;28;20043;-94
2021/08/06 00:50:33;;;;;;;2.33;1.55;;;19.30;78.30;;;;;;2049357;29;20042;-95
2021/08/06 00:51:34;;;;;;;2.50;1.70;;;19.30;78.30;;;;;;2056960;28;20066;-95
2021/08/06 00:52:35;;;;;;;2.47;1.50;;;19.30;78.40;;;;;;2049490;29;20075;-94
2021/08/06 00:53:39;;;;;;;2.15;1.60;;;19.30;78.40;;;;;;2049793;28;20528;-95
2021/08/06 00:54:40;;;;;;;2.53;1.70;;;19.30;78.50;;;;;;2057924;28;20042;-94
2021/08/06 00:55:41;;;;;;;2.30;1.50;;;19.30;78.50;;;;;;2049759;28;20079;-94
2021/08/06 00:56:46;;;;;;;2.63;1.45;;;19.30;78.50;;;;;;2041618;29;20541;-95
2021/08/06 00:57:47;;;;;;;2.40;1.60;;;19.30;78.50;;;;;;2043082;28;20054;-94
2021/08/06 00:58:48;;;;;;;3.03;1.65;;;19.30;78.60;;;;;;2049446;29;20050;-95
2021/08/06 00:59:48;;;;;;;3.05;1.70;;;19.30;79.30;;;;;;2057427;28;20035;-94
2021/08/06 01:00:50;;;;;;;2.35;1.55;;;19.30;78.70;;;;;;2065402;28;20121;-94
2021/08/06 01:02:26;;;;;;;3.22;1.70;;;19.30;78.70;;;;;;2042568;29;20040;-95
2021/08/06 01:03:33;;;;;;;2.70;1.67;;;19.30;78.80;;;;;;2017827;29;20089;-95
2021/08/06 01:05:00;;;;;;;3.40;1.65;;;19.30;78.80;;;;;;2018736;29;20055;-95
2021/08/06 01:06:08;;;;;;;2.60;1.52;;;19.30;78.80;;;;;;2057282;28;20027;-94
2021/08/06 01:07:17;;;;;;;2.75;1.35;;;19.30;78.90;;;;;;2049288;29;20042;-94
2021/08/06 01:08:27;;;;;;;2.40;1.50;;;19.20;78.80;;;;;;2050371;28;20054;-95
2021/08/06 01:09:58;;;;;;;3.03;1.50;;;19.20;78.90;;;;;;2049332;29;20212;-95
2021/08/06 01:11:02;;;;;;;2.40;1.70;;;19.20;78.90;;;;;;2053288;28;20039;-94
2021/08/06 01:12:08;;;;;;;2.50;1.60;;;19.20;78.90;;;;;;2049385;29;20042;-95
2021/08/06 01:13:11;;;;;;;2.85;1.67;;;19.20;78.90;;;;;;2050449;28;20035;-93
2021/08/06 01:14:19;;;;;;;1.95;1.40;;;19.20;78.90;;;;;;2050360;28;20130;-95
2021/08/06 01:15:21;;;;;;;2.17;1.48;;;19.20;79.00;;;;;;2042312;29;20027;-95
2021/08/06 01:16:31;;;;;;;2.05;1.40;;;19.20;79.10;;;;;;2041361;29;20490;-95
2021/08/06 01:17:34;;;;;;;2.50;1.60;;;19.30;79.20;;;;;;2035913;29;20364;-95
2021/08/06 01:18:38;;;;;;;4.25;1.60;;;19.20;79.20;;;;;;2041635;29;20043;-94
2021/08/06 01:19:54;;;;;;;2.92;1.80;;;19.20;79.20;;;;;;2041828;29;20028;-95
2021/08/06 01:20:56;;;;;;;1.98;1.33;;;19.20;79.20;;;;;;2051396;28;20086;-95
2021/08/06 01:22:05;;;;;;;2.20;1.30;;;19.20;79.20;;;;;;2057174;28;20034;-95
2021/08/06 01:23:21;;;;;;;2.08;1.50;;;19.30;79.30;;;;;;2056181;28;20445;-95
2021/08/06 01:24:27;;;;;;;2.13;1.48;;;19.30;79.20;;;;;;2043276;29;20032;-94
2021/08/06 01:25:45;;;;;;;2.10;1.40;;;19.20;79.20;;;;;;2049903;28;20027;-95
2021/08/06 01:26:47;;;;;;;2.45;1.35;;;19.20;79.20;;;;;;2054810;28;20045;-94
2021/08/06 01:27:49;;;;;;;2.38;1.48;;;19.20;79.20;;;;;;2049088;29;20044;-95
2021/08/06 01:28:50;;;;;;;1.98;1.55;;;19.20;79.30;;;;;;2049237;29;20058;-95
2021/08/06 01:29:51;;;;;;;2.20;1.60;;;19.20;79.30;;;;;;2041310;29;20032;-95
2021/08/06 01:30:53;;;;;;;2.42;1.70;;;19.20;79.30;;;;;;2033665;29;20036;-95
2021/08/06 01:31:54;;;;;;;2.70;1.67;;;19.20;79.40;;;;;;2025460;29;20028;-95
2021/08/06 01:32:57;;;;;;;1.65;1.30;;;19.30;79.40;;;;;;2025834;29;20052;-94
2021/08/06 01:33:57;;;;;;;3.05;1.55;;;19.30;79.50;;;;;;2041535;29;20067;-96
2021/08/06 01:34:58;;;;;;;2.50;1.40;;;19.20;79.40;;;;;;2049014;29;20054;-94
2021/08/06 01:36:00;;;;;;;2.13;1.58;;;19.20;79.50;;;;;;2041195;29;20039;-95
2021/08/06 01:37:00;;;;;;;4.18;1.40;;;19.20;80.10;;;;;;2033744;29;20052;-94
2021/08/06 01:38:01;;;;;;;2.92;1.35;;;19.20;79.50;;;;;;2041328;29;20578;-95
2021/08/06 01:39:03;;;;;;;1.77;1.48;;;19.20;79.50;;;;;;2041216;29;20131;-94
2021/08/06 01:40:07;;;;;;;2.42;1.60;;;19.30;79.60;;;;;;2033732;29;20064;-94
2021/08/06 01:41:16;;;;;;;3.70;1.60;;;19.30;79.60;;;;;;2049844;28;20123;-95
2021/08/06 01:42:41;;;;;;;2.70;1.52;;;19.30;79.60;;;;;;2057142;28;20564;-94
2021/08/06 01:44:12;;;;;;;2.00;1.42;;;19.20;79.60;;;;;;2056914;28;20030;-94
2021/08/06 01:45:22;;;;;;;3.97;1.67;;;19.20;79.60;;;;;;2033366;29;20040;-94
2021/08/06 01:46:37;;;;;;;2.45;1.55;;;19.30;79.60;;;;;;2044108;29;20508;-94
2021/08/06 01:47:46;;;;;;;2.03;1.55;;;19.20;79.60;;;;;;2052761;28;20046;-95
2021/08/06 01:48:52;;;;;;;2.25;1.45;;;19.30;79.60;;;;;;2062244;28;20034;-95
2021/08/06 01:49:58;;;;;;;2.42;1.50;;;19.20;79.60;;;;;;2065965;28;20023;-95
2021/08/06 01:50:59;;;;;;;2.22;1.48;;;19.20;79.60;;;;;;2065933;28;20042;-95
2021/08/06 01:52:08;;;;;;;2.10;1.50;;;19.20;79.60;;;;;;2065838;28;20082;-94
2021/08/06 01:53:13;;;;;;;2.88;1.48;;;19.30;79.80;;;;;;2067031;28;20539;-95
2021/08/06 01:54:16;;;;;;;2.10;1.40;;;19.20;79.70;;;;;;2074392;28;20050;-95
2021/08/06 01:55:18;;;;;;;2.05;1.40;;;19.20;79.80;;;;;;2066675;28;20106;-94
2021/08/06 01:56:20;;;;;;;2.40;1.40;;;19.30;79.90;;;;;;2066365;28;20030;-94
2021/08/06 01:57:22;;;;;;;2.47;1.40;;;19.30;79.90;;;;;;2049738;29;20039;-94
2021/08/06 01:58:24;;;;;;;2.38;1.33;;;19.30;79.90;;;;;;2036744;28;20040;-94
2021/08/06 01:59:27;;;;;;;1.83;1.33;;;19.30;79.90;;;;;;2059772;28;20050;-95
2021/08/06 02:00:29;;;;;;;2.78;1.20;;;19.20;79.90;;;;;;2052307;28;20115;-93
2021/08/06 02:01:30;;;;;;;2.47;1.60;;;19.30;79.90;;;;;;2051085;28;20039;-94
2021/08/06 02:02:31;;;;;;;2.08;1.27;;;19.20;79.80;;;;;;2035885;29;20055;-95
2021/08/06 02:03:32;;;;;;;2.47;1.52;;;19.30;79.80;;;;;;2035499;29;20047;-94
2021/08/06 02:04:33;;;;;;;2.13;1.35;;;19.30;79.90;;;;;;2036486;29;20044;-94
2021/08/06 02:05:36;;;;;;;2.08;1.40;;;19.30;79.80;;;;;;2043108;28;20501;-95
2021/08/06 02:06:37;;;;;;;1.77;1.20;;;19.30;79.80;;;;;;2051520;28;20642;-95
2021/08/06 02:07:40;;;;;;;2.22;1.58;;;19.30;79.80;;;;;;2035168;29;20135;-95
2021/08/06 02:08:40;;;;;;;1.42;1.10;;;19.30;79.80;;;;;;2035393;29;20467;-95
2021/08/06 02:09:42;;;;;;;2.03;1.20;;;19.30;79.70;;;;;;2051544;28;20039;-94
2021/08/06 02:10:43;;;;;;;2.30;1.45;;;19.30;79.60;;;;;;2051005;29;20090;-95
2021/08/06 02:11:44;;;;;;;1.77;1.30;;;19.30;79.60;;;;;;2050880;28;20044;-95
2021/08/06 02:12:46;;;;;;;1.85;1.38;;;19.30;79.60;;;;;;2050910;29;20397;-94
2021/08/06 02:13:51;;;;;;;3.97;1.70;;;19.30;79.50;;;;;;2050526;28;20039;-95
2021/08/06 02:14:51;;;;;;;1.88;1.30;;;19.30;79.50;;;;;;2051224;28;20122;-94
2021/08/06 02:15:53;;;;;;;2.65;1.30;;;19.30;79.40;;;;;;2042759;29;20047;-95
2021/08/06 02:16:54;;;;;;;1.58;1.20;;;19.30;79.40;;;;;;2042649;29;20040;-92
2021/08/06 02:17:56;;;;;;;2.22;1.40;;;19.30;79.30;;;;;;2042913;29;20528;-94
2021/08/06 02:18:58;;;;;;;1.88;1.40;;;19.30;79.30;;;;;;2034804;29;20139;-95
2021/08/06 02:19:59;;;;;;;1.73;1.35;;;19.40;79.30;;;;;;2042822;28;20044;-94
2021/08/06 02:21:05;;;;;;;3.17;1.27;;;19.40;79.30;;;;;;2042771;29;20056;-94
2021/08/06 02:22:08;;;;;;;2.53;1.50;;;19.30;79.30;;;;;;2044107;28;20401;-94
2021/08/06 02:23:09;;;;;;;3.47;1.63;;;19.30;79.30;;;;;;2058707;28;20122;-94
2021/08/06 02:24:13;;;;;;;2.08;1.50;;;19.30;79.50;;;;;;2050865;28;20080;-94
2021/08/06 02:25:16;;;;;;;2.63;1.45;;;19.30;79.70;;;;;;2058845;28;20031;-95
2021/08/06 02:26:19;;;;;;;2.08;1.40;;;19.20;79.80;;;;;;2058561;28;20038;-95
2021/08/06 02:27:21;;;;;;;2.17;1.45;;;19.20;80.00;;;;;;2058675;28;20126;-95
2021/08/06 02:28:22;;;;;;;2.20;1.38;;;19.10;80.10;;;;;;2046030;29;20528;-94
2021/08/06 02:29:26;;;;;;;1.98;1.35;;;19.10;80.60;;;;;;2042776;28;20087;-94
2021/08/06 02:30:29;;;;;;;2.22;1.50;;;19.00;80.50;;;;;;2058437;28;20404;-94
2021/08/06 02:31:31;;;;;;;2.13;1.35;;;19.10;80.70;;;;;;2058287;28;20039;-94
2021/08/06 02:32:31;;;;;;;1.70;1.40;;;19.00;80.90;;;;;;2058348;28;20419;-95
2021/08/06 02:33:33;;;;;;;1.83;1.20;;;19.00;81.00;;;;;;2042526;29;20040;-95
2021/08/06 02:34:34;;;;;;;1.88;1.27;;;19.00;81.00;;;;;;2042568;29;20126;-94
2021/08/06 02:35:35;;;;;;;2.70;1.40;;;19.00;81.10;;;;;;2042404;29;20466;-94
2021/08/06 02:36:35;;;;;;;2.22;1.40;;;18.90;81.20;;;;;;2042535;29;20126;-94
2021/08/06 02:37:38;;;;;;;1.90;1.30;;;18.90;81.30;;;;;;2042486;29;20063;-95
2021/08/06 02:38:39;;;;;;;1.30;1.10;;;18.90;81.40;;;;;;2034820;29;20052;-94
2021/08/06 02:39:40;;;;;;;1.63;1.20;;;18.90;81.50;;;;;;2046575;28;20039;-94
2021/08/06 02:40:43;;;;;;;2.15;1.40;;;18.90;81.60;;;;;;2042360;29;20044;-95
2021/08/06 02:41:45;;;;;;;1.92;1.30;;;18.90;81.70;;;;;;2043221;29;20040;-95
2021/08/06 02:42:47;;;;;;;1.80;1.30;;;18.90;81.80;;;;;;2050822;29;20091;-95
2021/08/06 02:43:48;;;;;;;2.00;1.42;;;18.90;81.90;;;;;;2050480;29;20058;-95
2021/08/06 02:44:49;;;;;;;1.80;1.30;;;18.90;82.00;;;;;;2050266;29;20067;-95
2021/08/06 02:45:51;;;;;;;1.70;1.20;;;18.90;82.10;;;;;;2050270;29;20035;-96
2021/08/06 02:46:52;;;;;;;1.98;1.20;;;18.90;82.10;;;;;;2058026;28;20125;-95
2021/08/06 02:47:54;;;;;;;2.08;1.42;;;18.90;82.20;;;;;;2050247;29;20066;-94
2021/08/06 02:48:54;;;;;;;2.08;1.30;;;18.90;82.20;;;;;;2050573;28;20031;-95
2021/08/06 02:49:55;;;;;;;1.40;1.17;;;18.90;82.20;;;;;;2043006;29;20063;-94
2021/08/06 02:50:56;;;;;;;1.90;1.30;;;18.90;82.20;;;;;;2043563;29;20042;-93
2021/08/06 02:51:58;;;;;;;2.10;1.30;;;18.90;82.20;;;;;;2050512;29;20059;-95
2021/08/06 02:52:58;;;;;;;2.38;1.35;;;18.90;82.20;;;;;;2042351;29;20043;-94
2021/08/06 02:53:59;;;;;;;1.90;1.15;;;18.90;82.30;;;;;;2034548;29;20036;-95
2021/08/06 02:55:00;;;;;;;1.70;1.25;;;18.90;82.30;;;;;;2034602;29;20120;-95
2021/08/06 02:56:01;;;;;;;2.88;1.48;;;18.90;82.30;;;;;;2026698;29;20044;-95
2021/08/06 02:57:02;;;;;;;2.10;1.38;;;18.90;82.20;;;;;;2049264;28;20126;-95
2021/08/06 02:58:03;;;;;;;2.00;1.30;;;18.90;82.20;;;;;;2066522;28;20122;-95
2021/08/06 02:59:04;;;;;;;2.53;1.40;;;18.90;82.20;;;;;;2051421;28;20043;-95
2021/08/06 03:00:05;;;;;;;2.35;1.50;;;18.90;82.20;;;;;;2050082;29;20532;-95
2021/08/06 03:01:06;;;;;;;1.92;1.30;;;18.90;82.20;;;;;;2042557;29;20103;-96
2021/08/06 03:02:07;;;;;;;2.10;1.38;;;18.90;82.20;;;;;;2042357;29;20074;-95
2021/08/06 03:03:08;;;;;;;3.42;1.45;;;18.90;82.20;;;;;;2042435;29;20036;-95
2021/08/06 03:04:08;;;;;;;2.45;1.40;;;18.90;82.20;;;;;;2050148;29;20035;-95
2021/08/06 03:05:09;;;;;;;3.08;1.50;;;18.90;82.20;;;;;;2050210;29;20035;-95
2021/08/06 03:06:10;;;;;;;2.50;1.45;;;18.90;82.20;;;;;;2050333;29;20043;-95
2021/08/06 03:07:10;;;;;;;2.05;1.48;;;18.90;82.20;;;;;;2050181;29;20048;-95
2021/08/06 03:08:11;;;;;;;2.03;1.30;;;18.90;82.20;;;;;;2042222;29;20561;-95
2021/08/06 03:09:12;;;;;;;2.25;1.50;;;18.90;82.20;;;;;;2050143;29;20437;-95
2021/08/06 03:10:13;;;;;;;1.83;1.38;;;18.90;82.20;;;;;;2050368;28;20044;-96
2021/08/06 03:11:13;;;;;;;2.20;1.50;;;18.90;82.20;;;;;;2050077;29;20490;-96
2021/08/06 03:12:14;;;;;;;2.15;1.45;;;18.90;82.20;;;;;;2050207;29;20403;-96
2021/08/06 03:13:15;;;;;;;1.98;1.35;;;18.90;82.20;;;;;;2049761;29;20027;-96
2021/08/06 03:14:15;;;;;;;2.47;1.52;;;18.90;82.20;;;;;;2050447;28;20039;-96
2021/08/06 03:15:18;;;;;;;3.38;1.60;;;18.80;82.80;;;;;;2058068;28;20034;-96
2021/08/06 03:16:18;;;;;;;2.05;1.40;;;18.90;82.30;;;;;;2050105;28;20045;-95
2021/08/06 03:17:19;;;;;;;1.63;1.25;;;18.90;82.30;;;;;;2034322;29;20051;-96
2021/08/06 03:18:20;;;;;;;2.08;1.38;;;18.90;82.30;;;;;;2026559;29;20044;-96
2021/08/06 03:19:20;;;;;;;1.95;1.40;;;18.90;82.30;;;;;;2042153;29;20070;-95
2021/08/06 03:20:22;;;;;;;2.10;1.42;;;18.80;82.30;;;;;;2042263;29;20032;-96
2021/08/06 03:21:23;;;;;;;1.88;1.50;;;18.80;82.30;;;;;;2042518;28;20044;-96
2021/08/06 03:22:24;;;;;;;2.40;1.48;;;18.90;82.40;;;;;;2042587;29;20126;-96
2021/08/06 03:23:25;;;;;;;2.08;1.38;;;18.90;82.40;;;;;;2042005;29;20078;-95
2021/08/06 03:24:25;;;;;;;1.70;1.30;;;18.80;82.40;;;;;;2042332;29;20561;-95
2021/08/06 03:25:26;;;;;;;2.10;1.42;;;18.90;82.50;;;;;;2042520;29;20059;-95
2021/08/06 03:26:27;;;;;;;2.38;1.50;;;18.80;82.40;;;;;;2058032;28;20067;-95
2021/08/06 03:27:27;;;;;;;3.25;1.70;;;18.90;82.50;;;;;;2049876;28;20047;-95
2021/08/06 03:28:28;;;;;;;1.90;1.30;;;18.80;82.50;;;;;;2046244;29;20118;-95
2021/08/06 03:29:29;;;;;;;2.42;1.42;;;18.80;82.50;;;;;;2042064;29;20663;-95
2021/08/06 03:30:29;;;;;;;2.30;1.50;;;18.80;82.50;;;;;;2031741;29;20514;-96
2021/08/06 03:31:31;;;;;;;2.95;1.52;;;18.80;82.50;;;;;;2058261;28;20508;-95
2021/08/06 03:32:32;;;;;;;2.13;1.48;;;18.80;82.50;;;;;;2050494;28;20103;-94
2021/08/06 03:33:32;;;;;;;3.33;1.58;;;18.80;82.50;;;;;;2050268;28;20039;-95
2021/08/06 03:34:33;;;;;;;2.55;1.38;;;18.80;82.50;;;;;;2057957;28;20054;-95
2021/08/06 03:35:34;;;;;;;2.60;1.50;;;18.80;82.50;;;;;;2050056;28;20091;-95
2021/08/06 03:36:34;;;;;;;2.53;1.60;;;18.80;82.50;;;;;;2050264;29;20490;-95
2021/08/06 03:37:35;;;;;;;2.72;1.30;;;18.80;82.50;;;;;;2057878;28;20031;-95
2021/08/06 03:38:36;;;;;;;2.10;1.40;;;18.80;82.50;;;;;;2050061;29;20095;-96
2021/08/06 03:39:37;;;;;;;2.55;1.48;;;18.80;82.60;;;;;;2049971;28;20082;-94
2021/08/06 03:40:37;;;;;;;2.22;1.42;;;18.80;82.60;;;;;;2058155;28;20039;-95
2021/08/06 03:41:38;;;;;;;1.45;1.30;;;18.80;82.70;;;;;;2042359;29;20095;-95
2021/08/06 03:42:39;;;;;;;1.73;1.30;;;18.80;82.60;;;;;;2050186;28;20057;-95
2021/08/06 03:43:40;;;;;;;2.20;1.40;;;18.80;82.70;;;;;;2050190;28;20065;-96
2021/08/06 03:44:41;;;;;;;2.40;1.50;;;18.80;82.60;;;;;;2049836;29;20069;-96
2021/08/06 03:45:42;;;;;;;1.95;1.33;;;18.80;82.60;;;;;;2049923;29;20097;-95
2021/08/06 03:46:42;;;;;;;3.80;1.55;;;18.80;82.60;;;;;;2049790;28;20047;-95
2021/08/06 03:47:43;;;;;;;1.75;1.40;;;18.80;82.60;;;;;;2058023;28;20543;-95
2021/08/06 03:48:44;;;;;;;1.60;1.23;;;18.80;82.70;;;;;;2049966;29;20513;-96
2021/08/06 03:49:44;;;;;;;2.15;1.30;;;18.80;82.70;;;;;;2058061;28;20038;-95
2021/08/06 03:50:45;;;;;;;1.73;1.35;;;18.80;82.70;;;;;;2049879;28;20043;-95
2021/08/06 03:51:46;;;;;;;2.05;1.27;;;18.80;82.70;;;;;;2037124;29;20075;-96
2021/08/06 03:52:47;;;;;;;1.67;1.30;;;18.80;82.80;;;;;;2049941;29;20085;-95
2021/08/06 03:53:47;;;;;;;1.92;1.30;;;18.80;82.80;;;;;;2050033;28;20043;-95
2021/08/06 03:54:48;;;;;;;1.90;1.30;;;18.80;82.80;;;;;;2049774;29;20155;-95
2021/08/06 03:55:49;;;;;;;2.80;1.65;;;18.70;82.70;;;;;;2041969;29;20040;-96
2021/08/06 03:56:50;;;;;;;2.53;1.40;;;18.80;82.80;;;;;;2057657;28;20039;-95
2021/08/06 03:57:55;;;;;;;2.00;1.40;;;18.80;82.90;;;;;;2042114;29;20094;-95
2021/08/06 03:58:56;;;;;;;2.08;1.40;;;18.70;82.90;;;;;;2042533;29;20115;-95
2021/08/06 03:59:57;;;;;;;2.78;1.40;;;18.70;83.00;;;;;;2034252;29;20186;-94
2021/08/06 04:00:57;;;;;;;2.40;1.42;;;18.70;83.10;;;;;;2034060;29;20083;-95
2021/08/06 04:01:58;;;;;;;2.50;1.40;;;18.70;83.30;;;;;;2049773;29;20050;-95
2021/08/06 04:02:59;;;;;;;2.13;1.45;;;18.60;83.40;;;;;;2041614;29;20042;-96
2021/08/06 04:04:00;;;;;;;2.50;1.50;;;18.60;83.60;;;;;;2054823;28;20035;-96
2021/08/06 04:05:00;;;;;;;1.95;1.30;;;18.50;83.70;;;;;;2049251;29;20378;-96
2021/08/06 04:06:01;;;;;;;2.67;1.75;;;18.50;84.00;;;;;;2049680;29;20094;-96
2021/08/06 04:07:02;;;;;;;2.40;1.63;;;18.40;84.20;;;;;;2049740;29;20039;-96
2021/08/06 04:08:07;;;;;;;2.22;1.30;;;18.40;84.50;;;;;;2050042;28;20051;-96
2021/08/06 04:09:08;;;;;;;2.95;1.30;;;18.30;84.70;;;;;;2065619;28;20039;-93
2021/08/06 04:10:11;;;;;;;2.17;1.40;;;18.30;84.90;;;;;;2068075;28;20050;-95
2021/08/06 04:11:11;;;;;;;2.63;1.63;;;18.20;85.00;;;;;;2060144;28;20034;-95
2021/08/06 04:12:12;;;;;;;2.35;1.50;;;18.20;85.30;;;;;;2060052;28;20083;-92
2021/08/06 04:13:13;;;;;;;2.50;1.50;;;18.10;85.40;;;;;;2052159;28;20039;-93
2021/08/06 04:14:13;;;;;;;2.45;1.55;;;18.10;85.50;;;;;;2052091;28;20024;-93
2021/08/06 04:15:15;;;;;;;2.15;1.50;;;18.10;85.80;;;;;;2068078;28;20015;-92
2021/08/06 04:16:16;;;;;;;2.20;1.50;;;18.10;85.90;;;;;;2068103;28;20019;-92
2021/08/06 04:17:17;;;;;;;1.92;1.40;;;18.00;85.90;;;;;;2068077;28;20039;-90
2021/08/06 04:18:17;;;;;;;1.90;1.40;;;18.00;86.00;;;;;;2059994;28;20062;-94
2021/08/06 04:19:18;;;;;;;2.05;1.40;;;18.00;86.20;;;;;;2044113;28;20028;-94
2021/08/06 04:20:19;;;;;;;1.83;1.30;;;18.00;86.40;;;;;;2036477;29;20072;-95
2021/08/06 04:21:20;;;;;;;2.22;1.42;;;17.90;86.50;;;;;;2050258;28;20040;-96
2021/08/06 04:22:21;;;;;;;2.25;1.50;;;17.90;86.70;;;;;;2067736;28;20023;-95
2021/08/06 04:23:21;;;;;;;2.00;1.40;;;17.90;86.80;;;;;;2059749;28;20027;-90
2021/08/06 04:24:22;;;;;;;2.10;1.30;;;17.80;86.90;;;;;;2059540;28;20046;-90
2021/08/06 04:25:23;;;;;;;1.98;1.20;;;17.80;87.10;;;;;;2059593;28;20028;-94
2021/08/06 04:26:23;;;;;;;1.83;1.10;;;17.80;87.20;;;;;;2059662;28;20011;-92
2021/08/06 04:27:24;;;;;;;2.20;1.20;;;17.80;87.40;;;;;;2052447;28;20095;-95
2021/08/06 04:28:25;;;;;;;1.67;1.20;;;17.80;87.50;;;;;;2043689;29;20063;-93
2021/08/06 04:29:26;;;;;;;1.77;1.13;;;17.80;87.60;;;;;;2035780;29;20012;-93
2021/08/06 04:30:26;;;;;;;1.92;1.13;;;17.70;88.20;;;;;;2035907;29;20032;-94
2021/08/06 04:31:27;;;;;;;1.70;1.08;;;17.70;87.70;;;;;;2034939;29;20024;-94
2021/08/06 04:32:28;;;;;;;1.77;1.10;;;17.70;87.80;;;;;;2043928;28;20044;-93
2021/08/06 04:33:28;;;;;;;2.25;1.20;;;17.70;87.90;;;;;;2043496;29;20028;-93
2021/08/06 04:34:29;;;;;;;1.83;0.90;;;17.70;88.00;;;;;;2043618;29;20096;-94
2021/08/06 04:35:30;;;;;;;2.47;1.15;;;17.70;88.20;;;;;;2050742;29;20044;-94
2021/08/06 04:36:30;;;;;;;1.50;0.98;;;17.70;88.30;;;;;;2046267;29;20537;-94
2021/08/06 04:37:31;;;;;;;1.45;0.98;;;17.70;88.30;;;;;;2037974;29;20040;-94
2021/08/06 04:38:32;;;;;;;1.52;1.00;;;17.70;88.40;;;;;;2043352;28;20042;-94
2021/08/06 04:39:33;;;;;;;1.83;1.10;;;17.70;88.40;;;;;;2043566;29;20093;-94
2021/08/06 04:40:33;;;;;;;1.88;1.08;;;17.70;88.50;;;;;;2057993;28;20030;-94
2021/08/06 04:41:34;;;;;;;1.35;0.93;;;17.70;88.50;;;;;;2066480;28;20042;-94
2021/08/06 04:42:34;;;;;;;1.55;1.10;;;17.70;89.10;;;;;;2047122;29;20130;-94
2021/08/06 04:43:35;;;;;;;2.10;1.35;;;17.80;88.60;;;;;;2036947;29;20048;-93
2021/08/06 04:44:38;;;;;;;1.55;1.05;;;17.70;88.50;;;;;;2044436;28;20040;-95
2021/08/06 04:45:39;;;;;;;1.98;1.10;;;17.80;88.70;;;;;;2040726;29;20139;-95
2021/08/06 04:46:39;;;;;;;2.15;1.10;;;17.80;88.80;;;;;;2047863;28;20083;-94
2021/08/06 04:47:55;;;;;;;1.38;1.00;;;17.80;88.80;;;;;;2054309;28;20138;-94
2021/08/06 04:48:55;;;;;;;1.80;1.08;;;17.80;88.80;;;;;;2065539;28;20040;-94
2021/08/06 04:49:56;;;;;;;1.70;1.20;;;17.80;88.80;;;;;;2054995;29;20039;-94
2021/08/06 04:50:57;;;;;;;2.15;1.10;;;17.70;88.70;;;;;;2054205;29;20039;-94
2021/08/06 04:51:58;;;;;;;1.90;1.10;;;17.80;89.30;;;;;;2042535;29;20071;-94
2021/08/06 04:52:59;;;;;;;1.45;1.20;;;17.80;88.80;;;;;;2050241;29;20086;-94
2021/08/06 04:54:00;;;;;;;1.77;1.20;;;17.80;88.90;;;;;;2042046;28;20047;-94
2021/08/06 04:55:01;;;;;;;1.45;1.13;;;17.80;88.90;;;;;;2057864;28;20034;-94
2021/08/06 04:56:01;;;;;;;2.28;1.10;;;17.80;89.00;;;;;;2049394;29;20046;-94
2021/08/06 04:57:02;;;;;;;1.40;1.10;;;17.80;89.00;;;;;;2049465;29;20058;-94
2021/08/06 04:58:04;;;;;;;2.00;1.20;;;17.80;89.00;;;;;;2055582;28;20030;-94
2021/08/06 04:59:05;;;;;;;2.28;1.40;;;17.80;89.10;;;;;;2057733;28;20050;-94
2021/08/06 05:00:07;;;;;;;1.63;1.20;;;17.80;89.20;;;;;;2049353;29;20115;-94
2021/08/06 05:01:08;;;;;;;1.52;1.20;;;17.80;89.20;;;;;;2041966;28;20070;-94
2021/08/06 05:02:09;;;;;;;1.70;1.17;;;17.90;89.30;;;;;;2049481;28;20122;-94
2021/08/06 05:03:09;;;;;;;1.50;1.02;;;17.80;89.20;;;;;;2049410;29;20071;-94
2021/08/06 05:04:10;;;;;;;1.63;1.02;;;17.90;89.30;;;;;;2050224;28;20086;-94
2021/08/06 05:05:12;;;;;;;1.40;1.00;;;17.80;89.20;;;;;;2049413;28;20031;-94
2021/08/06 05:06:14;;;;;;;1.85;1.27;;;17.90;89.30;;;;;;2049975;28;20035;-95
2021/08/06 05:08:55;;;;;;;2.05;1.38;;;17.80;89.20;;;;;;2033703;29;20051;-95
2021/08/06 06:17:37;;;;;;;1.63;1.00;;;17.90;88.00;;;;;;2065545;28;20046;-93
2021/08/06 06:18:57;;;;;;;1.52;0.98;;;17.90;88.00;;;;;;2055922;28;20130;-94
2021/08/06 06:20:00;;;;;;;1.52;1.02;;;17.90;88.20;;;;;;2060941;28;20038;-92
2021/08/06 06:21:02;;;;;;;1.40;1.02;;;17.90;88.40;;;;;;2050978;28;20166;-93
2021/08/06 06:22:08;;;;;;;2.35;1.20;;;17.90;88.50;;;;;;2044131;28;20573;-90
2021/08/06 06:23:09;;;;;;;2.45;1.20;;;18.00;88.70;;;;;;2051702;28;20043;-93
2021/08/06 06:24:11;;;;;;;1.67;1.25;;;17.90;88.80;;;;;;2050674;28;20058;-93
2021/08/06 06:25:14;;;;;;;1.70;1.10;;;17.90;89.00;;;;;;2050960;28;20049;-94
2021/08/06 06:26:16;;;;;;;2.85;1.02;;;18.00;89.30;;;;;;2049992;29;20437;-94
2021/08/06 06:27:18;;;;;;;1.45;1.20;;;17.90;89.30;;;;;;2042917;29;20048;-94
2021/08/06 06:28:19;;;;;;;1.40;1.08;;;17.90;89.50;;;;;;2034662;29;20039;-93
2021/08/06 06:29:21;;;;;;;1.92;1.10;;;17.90;89.60;;;;;;2042388;29;20118;-93
2021/08/06 06:30:26;;;;;;;2.25;1.30;;;17.90;89.80;;;;;;2035157;29;20044;-92
2021/08/06 06:31:28;;;;;;;1.20;1.00;;;17.90;89.90;;;;;;2050485;28;20032;-92
2021/08/06 06:32:29;;;;;;;1.92;1.10;;;17.90;90.00;;;;;;2042308;29;20050;-92
2021/08/06 06:33:30;;;;;;;1.35;1.00;;;17.90;90.00;;;;;;2035054;29;20040;-93
2021/08/06 06:34:32;;;;;;;1.58;1.02;;;17.90;90.00;;;;;;2042282;29;20087;-92